sensor_id;sensor_type;location;lat;lon;timestamp;pressure;altitude;pressure_sealevel;temperature;humidity
3780;BME280;1905;52.482;9.802;2022-11-15T00:02:44;100677.22;;;7.52;84.12
3780;BME280;1905;52.482;9.802;2022-11-15T00:05:34;100673.66;;;7.53;84.22
3780;BME280;1905;52.482;9.802;2022-11-15T00:08:20;100678.97;;;7.52;84.50
3780;BME280;1905;52.482;9.802;2022-11-15T00:11:10;100678.19;;;7.50;83.95
3780;BME280;1905;52.482;9.802;2022-11-15T00:13:57;100673.03;;;7.45;84.19
3780;BME280;1905;52.482;9.802;2022-11-15T00:16:43;100676.59;;;7.44;84.47
3780;BME280;1905;52.482;9.802;2022-11-15T00:19:29;100669.63;;;7.43;84.00
3780;BME280;1905;52.482;9.802;2022-11-15T00:22:16;100666.19;;;7.41;84.00
3780;BME280;1905;52.482;9.802;2022-11-15T00:25:02;100673.22;;;7.39;84.47
3780;BME280;1905;52.482;9.802;2022-11-15T00:27:50;100672.44;;;7.37;83.91
3780;BME280;1905;52.482;9.802;2022-11-15T00:30:37;100675.06;;;7.37;83.79
3780;BME280;1905;52.482;9.802;2022-11-15T00:33:23;100669.88;;;7.34;83.59
3780;BME280;1905;52.482;9.802;2022-11-15T00:36:09;100656.81;;;7.33;83.85
3780;BME280;1905;52.482;9.802;2022-11-15T00:38:56;100656.03;;;7.29;84.17
3780;BME280;1905;52.482;9.802;2022-11-15T00:41:42;100654.34;;;7.28;83.59
3780;BME280;1905;52.482;9.802;2022-11-15T00:44:31;100664.84;;;7.28;83.75
3780;BME280;1905;52.482;9.802;2022-11-15T00:47:17;100669.22;;;7.28;83.58
3780;BME280;1905;52.482;9.802;2022-11-15T00:50:04;100665.91;;;7.21;84.06
3780;BME280;1905;52.482;9.802;2022-11-15T00:52:50;100670.31;;;7.20;84.23
3780;BME280;1905;52.482;9.802;2022-11-15T00:55:37;100667.78;;;7.17;84.33
3780;BME280;1905;52.482;9.802;2022-11-15T00:58:23;100666.00;;;7.18;83.90
3780;BME280;1905;52.482;9.802;2022-11-15T01:01:13;100672.19;;;7.17;84.20
3780;BME280;1905;52.482;9.802;2022-11-15T01:04:00;100663.47;;;7.15;84.02
3780;BME280;1905;52.482;9.802;2022-11-15T01:06:46;100666.09;;;7.15;83.83
3780;BME280;1905;52.482;9.802;2022-11-15T01:09:32;100660.03;;;7.13;84.22
3780;BME280;1905;52.482;9.802;2022-11-15T01:12:19;100659.16;;;7.14;84.07
3780;BME280;1905;52.482;9.802;2022-11-15T01:15:06;100654.75;;;7.14;84.05
3780;BME280;1905;52.482;9.802;2022-11-15T01:17:56;100651.44;;;7.08;84.51
3780;BME280;1905;52.482;9.802;2022-11-15T01:20:43;100651.34;;;7.11;83.86
3780;BME280;1905;52.482;9.802;2022-11-15T01:23:29;100644.28;;;7.13;84.12
3780;BME280;1905;52.482;9.802;2022-11-15T01:26:16;100645.25;;;7.10;84.44
3780;BME280;1905;52.482;9.802;2022-11-15T01:29:02;100638.94;;;7.16;84.33
3780;BME280;1905;52.482;9.802;2022-11-15T01:31:49;100647.59;;;7.19;83.98
3780;BME280;1905;52.482;9.802;2022-11-15T01:34:36;100652.78;;;7.21;84.19
3780;BME280;1905;52.482;9.802;2022-11-15T01:37:22;100642.38;;;7.18;83.91
3780;BME280;1905;52.482;9.802;2022-11-15T01:40:10;100638.00;;;7.18;84.69
3780;BME280;1905;52.482;9.802;2022-11-15T01:42:56;100639.66;;;7.21;84.51
3780;BME280;1905;52.482;9.802;2022-11-15T01:45:50;100627.47;;;7.20;84.91
3780;BME280;1905;52.482;9.802;2022-11-15T01:48:38;100624.72;;;7.23;84.26
3780;BME280;1905;52.482;9.802;2022-11-15T01:51:27;100608.84;;;7.26;85.66
3780;BME280;1905;52.482;9.802;2022-11-15T01:54:19;100614.00;;;7.29;84.47
3780;BME280;1905;52.482;9.802;2022-11-15T01:57:09;100603.50;;;7.29;84.65
3780;BME280;1905;52.482;9.802;2022-11-15T01:59:57;100603.50;;;7.29;84.64
3780;BME280;1905;52.482;9.802;2022-11-15T02:02:43;100598.16;;;7.32;84.53
3780;BME280;1905;52.482;9.802;2022-11-15T02:05:30;100596.34;;;7.34;84.28
3780;BME280;1905;52.482;9.802;2022-11-15T02:08:18;100592.88;;;7.34;84.21
3780;BME280;1905;52.482;9.802;2022-11-15T02:11:08;100594.63;;;7.33;84.77
3780;BME280;1905;52.482;9.802;2022-11-15T02:13:54;100593.81;;;7.31;84.45
3780;BME280;1905;52.482;9.802;2022-11-15T02:16:51;100579.63;;;7.37;83.96
3780;BME280;1905;52.482;9.802;2022-11-15T02:20:05;100588.47;;;7.34;84.54
3780;BME280;1905;52.482;9.802;2022-11-15T02:23:19;100588.53;;;7.33;84.64
3780;BME280;1905;52.482;9.802;2022-11-15T02:26:32;100585.00;;;7.34;84.52
3780;BME280;1905;52.482;9.802;2022-11-15T02:29:31;100582.31;;;7.35;84.15
3780;BME280;1905;52.482;9.802;2022-11-15T02:32:28;100584.13;;;7.33;84.16
3780;BME280;1905;52.482;9.802;2022-11-15T02:35:25;100582.41;;;7.32;84.12
3780;BME280;1905;52.482;9.802;2022-11-15T02:38:22;100584.13;;;7.33;84.24
3780;BME280;1905;52.482;9.802;2022-11-15T02:41:13;100571.81;;;7.35;84.41
3780;BME280;1905;52.482;9.802;2022-11-15T02:44:03;100569.28;;;7.32;85.06
3780;BME280;1905;52.482;9.802;2022-11-15T02:46:54;100571.81;;;7.35;85.39
3780;BME280;1905;52.482;9.802;2022-11-15T02:50:07;100569.88;;;7.40;87.02
3780;BME280;1905;52.482;9.802;2022-11-15T02:52:54;100573.31;;;7.42;86.98
3780;BME280;1905;52.482;9.802;2022-11-15T02:55:43;100570.56;;;7.47;87.06
3780;BME280;1905;52.482;9.802;2022-11-15T02:58:58;100552.88;;;7.52;88.37
3780;BME280;1905;52.482;9.802;2022-11-15T03:01:56;100557.16;;;7.54;87.88
3780;BME280;1905;52.482;9.802;2022-11-15T03:04:53;100548.38;;;7.55;88.00
3780;BME280;1905;52.482;9.802;2022-11-15T03:07:50;100548.25;;;7.58;88.41
3780;BME280;1905;52.482;9.802;2022-11-15T03:10:52;100543.72;;;7.63;89.42
3780;BME280;1905;52.482;9.802;2022-11-15T03:13:46;100545.31;;;7.67;89.76
3780;BME280;1905;52.482;9.802;2022-11-15T03:16:38;100547.94;;;7.67;88.78
3780;BME280;1905;52.482;9.802;2022-11-15T03:19:30;100547.94;;;7.67;88.56
3780;BME280;1905;52.482;9.802;2022-11-15T03:22:20;100542.59;;;7.70;86.82
3780;BME280;1905;52.482;9.802;2022-11-15T03:25:10;100536.44;;;7.71;85.42
3780;BME280;1905;52.482;9.802;2022-11-15T03:28:01;100542.47;;;7.73;85.06
3780;BME280;1905;52.482;9.802;2022-11-15T03:30:50;100539.84;;;7.73;85.25
3780;BME280;1905;52.482;9.802;2022-11-15T03:33:38;100536.47;;;7.70;84.90
3780;BME280;1905;52.482;9.802;2022-11-15T03:36:25;100542.59;;;7.70;84.54
3780;BME280;1905;52.482;9.802;2022-11-15T03:39:13;100538.19;;;7.71;84.38
3780;BME280;1905;52.482;9.802;2022-11-15T03:42:13;100542.66;;;7.69;84.67
3780;BME280;1905;52.482;9.802;2022-11-15T03:45:07;100542.69;;;7.67;84.97
3780;BME280;1905;52.482;9.802;2022-11-15T03:48:05;100542.78;;;7.64;84.44
3780;BME280;1905;52.482;9.802;2022-11-15T03:50:55;100544.56;;;7.64;84.12
3780;BME280;1905;52.482;9.802;2022-11-15T03:53:42;100537.63;;;7.61;84.10
3780;BME280;1905;52.482;9.802;2022-11-15T03:56:28;100544.81;;;7.56;84.38
3780;BME280;1905;52.482;9.802;2022-11-15T03:59:16;100545.69;;;7.57;84.86
3780;BME280;1905;52.482;9.802;2022-11-15T04:02:02;100551.81;;;7.57;84.56
3780;BME280;1905;52.482;9.802;2022-11-15T04:04:48;100556.13;;;7.58;84.83
3780;BME280;1905;52.482;9.802;2022-11-15T04:07:34;100545.78;;;7.54;84.69
3780;BME280;1905;52.482;9.802;2022-11-15T04:10:20;100549.31;;;7.53;85.26
3780;BME280;1905;52.482;9.802;2022-11-15T04:13:07;100548.41;;;7.54;85.23
3780;BME280;1905;52.482;9.802;2022-11-15T04:15:55;100541.22;;;7.59;85.00
3780;BME280;1905;52.482;9.802;2022-11-15T04:18:41;100542.09;;;7.59;84.91
3780;BME280;1905;52.482;9.802;2022-11-15T04:21:27;100536.84;;;7.59;85.07
3780;BME280;1905;52.482;9.802;2022-11-15T04:24:31;100537.72;;;7.58;84.62
3780;BME280;1905;52.482;9.802;2022-11-15T04:27:18;100533.41;;;7.57;84.63
3780;BME280;1905;52.482;9.802;2022-11-15T04:30:05;100532.38;;;7.61;84.65
3780;BME280;1905;52.482;9.802;2022-11-15T04:32:53;100528.84;;;7.62;84.39
3780;BME280;1905;52.482;9.802;2022-11-15T04:35:39;100530.44;;;7.66;84.98
3780;BME280;1905;52.482;9.802;2022-11-15T04:38:26;100522.56;;;7.66;84.98
3780;BME280;1905;52.482;9.802;2022-11-15T04:41:11;100528.66;;;7.68;84.72
3780;BME280;1905;52.482;9.802;2022-11-15T04:43:57;100528.69;;;7.67;84.96
3780;BME280;1905;52.482;9.802;2022-11-15T04:46:43;100537.44;;;7.67;84.49
3780;BME280;1905;52.482;9.802;2022-11-15T04:49:31;100540.06;;;7.67;84.48
3780;BME280;1905;52.482;9.802;2022-11-15T04:52:17;100540.84;;;7.69;83.99
3780;BME280;1905;52.482;9.802;2022-11-15T04:55:04;100540.13;;;7.66;83.95
3780;BME280;1905;52.482;9.802;2022-11-15T04:57:59;100548.81;;;7.68;83.75
3780;BME280;1905;52.482;9.802;2022-11-15T05:00:45;100551.69;;;7.60;84.75
3780;BME280;1905;52.482;9.802;2022-11-15T05:03:31;100549.06;;;7.60;83.76
3780;BME280;1905;52.482;9.802;2022-11-15T05:06:36;100560.38;;;7.62;83.76
3780;BME280;1905;52.482;9.802;2022-11-15T05:09:22;100548.97;;;7.63;84.39
3780;BME280;1905;52.482;9.802;2022-11-15T05:12:09;100548.25;;;7.58;84.42
3780;BME280;1905;52.482;9.802;2022-11-15T05:14:55;100550.06;;;7.56;84.74
3780;BME280;1905;52.482;9.802;2022-11-15T05:17:41;100552.69;;;7.56;84.23
3780;BME280;1905;52.482;9.802;2022-11-15T05:20:28;100549.28;;;7.54;85.00
3780;BME280;1905;52.482;9.802;2022-11-15T05:23:16;100551.81;;;7.57;87.20
3780;BME280;1905;52.482;9.802;2022-11-15T05:26:02;100547.41;;;7.58;87.27
3780;BME280;1905;52.482;9.802;2022-11-15T05:28:57;100548.03;;;7.64;88.56
3780;BME280;1905;52.482;9.802;2022-11-15T05:31:43;100546.97;;;7.70;90.19
3780;BME280;1905;52.482;9.802;2022-11-15T05:34:30;100545.91;;;7.75;89.87
3780;BME280;1905;52.482;9.802;2022-11-15T05:37:16;100549.34;;;7.77;90.13
3780;BME280;1905;52.482;9.802;2022-11-15T05:40:06;100543.78;;;7.87;92.03
3780;BME280;1905;52.482;9.802;2022-11-15T05:42:53;100542.53;;;7.97;93.29
3780;BME280;1905;52.482;9.802;2022-11-15T05:45:39;100548.47;;;8.02;94.07
3780;BME280;1905;52.482;9.802;2022-11-15T05:48:26;100537.66;;;8.11;95.01
3780;BME280;1905;52.482;9.802;2022-11-15T05:51:14;100541.03;;;8.14;94.92
3780;BME280;1905;52.482;9.802;2022-11-15T05:54:01;100548.63;;;8.22;95.73
3780;BME280;1905;52.482;9.802;2022-11-15T05:56:49;100552.78;;;8.29;95.35
3780;BME280;1905;52.482;9.802;2022-11-15T05:59:36;100540.34;;;8.34;96.03
3780;BME280;1905;52.482;9.802;2022-11-15T06:02:22;100540.75;;;8.47;96.25
3780;BME280;1905;52.482;9.802;2022-11-15T06:05:09;100544.06;;;8.52;95.33
3780;BME280;1905;52.482;9.802;2022-11-15T06:07:57;100542.16;;;8.55;96.50
3780;BME280;1905;52.482;9.802;2022-11-15T06:10:43;100542.84;;;8.60;95.67
3780;BME280;1905;52.482;9.802;2022-11-15T06:13:31;100543.50;;;8.67;95.58
3780;BME280;1905;52.482;9.802;2022-11-15T06:16:18;100546.06;;;8.68;95.41
3780;BME280;1905;52.482;9.802;2022-11-15T06:19:05;100549.25;;;8.76;96.03
3780;BME280;1905;52.482;9.802;2022-11-15T06:21:52;100549.88;;;8.83;95.89
3780;BME280;1905;52.482;9.802;2022-11-15T06:24:38;100554.97;;;8.87;95.23
3780;BME280;1905;52.482;9.802;2022-11-15T06:27:24;100550.50;;;8.89;94.84
3780;BME280;1905;52.482;9.802;2022-11-15T06:30:13;100553.75;;;8.96;95.22
3780;BME280;1905;52.482;9.802;2022-11-15T06:33:00;100546.34;;;9.06;95.89
3780;BME280;1905;52.482;9.802;2022-11-15T06:35:47;100549.78;;;9.08;96.14
3780;BME280;1905;52.482;9.802;2022-11-15T06:38:34;100548.81;;;9.10;95.79
3780;BME280;1905;52.482;9.802;2022-11-15T06:41:20;100544.25;;;9.14;95.71
3780;BME280;1905;52.482;9.802;2022-11-15T06:44:07;100554.56;;;9.20;95.82
3780;BME280;1905;52.482;9.802;2022-11-15T06:46:55;100543.88;;;9.23;95.74
3780;BME280;1905;52.482;9.802;2022-11-15T06:49:41;100543.03;;;9.22;95.11
3780;BME280;1905;52.482;9.802;2022-11-15T06:52:27;100549.03;;;9.26;96.02
3780;BME280;1905;52.482;9.802;2022-11-15T06:55:17;100549.03;;;9.26;94.44
3780;BME280;1905;52.482;9.802;2022-11-15T06:58:04;100550.63;;;9.30;94.50
3780;BME280;1905;52.482;9.802;2022-11-15T07:00:50;100548.06;;;9.28;94.05
3780;BME280;1905;52.482;9.802;2022-11-15T07:03:39;100558.34;;;9.34;94.34
3780;BME280;1905;52.482;9.802;2022-11-15T07:06:26;100555.66;;;9.36;94.54
3780;BME280;1905;52.482;9.802;2022-11-15T07:09:12;100568.03;;;9.34;94.17
3780;BME280;1905;52.482;9.802;2022-11-15T07:11:59;100568.16;;;9.31;92.63
3780;BME280;1905;52.482;9.802;2022-11-15T07:14:51;100570.13;;;9.26;93.02
3780;BME280;1905;52.482;9.802;2022-11-15T07:17:37;100570.00;;;9.29;92.92
3780;BME280;1905;52.482;9.802;2022-11-15T07:20:25;100565.63;;;9.28;93.15
3780;BME280;1905;52.482;9.802;2022-11-15T07:23:11;100569.06;;;9.30;93.32
3780;BME280;1905;52.482;9.802;2022-11-15T07:25:58;100567.38;;;9.29;92.50
3780;BME280;1905;52.482;9.802;2022-11-15T07:28:44;100565.63;;;9.28;92.79
3780;BME280;1905;52.482;9.802;2022-11-15T07:31:30;100576.28;;;9.25;92.68
3780;BME280;1905;52.482;9.802;2022-11-15T07:34:16;100570.91;;;9.28;92.82
3780;BME280;1905;52.482;9.802;2022-11-15T07:37:04;100570.91;;;9.28;93.01
3780;BME280;1905;52.482;9.802;2022-11-15T07:39:50;100572.63;;;9.29;91.84
3780;BME280;1905;52.482;9.802;2022-11-15T07:42:37;100576.25;;;9.26;92.27
3780;BME280;1905;52.482;9.802;2022-11-15T07:45:41;100571.81;;;9.27;92.86
3780;BME280;1905;52.482;9.802;2022-11-15T07:48:27;100571.69;;;9.30;92.85
3780;BME280;1905;52.482;9.802;2022-11-15T07:51:27;100568.03;;;9.34;92.60
3780;BME280;1905;52.482;9.802;2022-11-15T07:54:15;100554.84;;;9.34;94.15
3780;BME280;1905;52.482;9.802;2022-11-15T07:57:01;100553.91;;;9.35;92.66
3780;BME280;1905;52.482;9.802;2022-11-15T07:59:51;100552.88;;;9.39;93.50
3780;BME280;1905;52.482;9.802;2022-11-15T08:02:38;100551.97;;;9.40;92.94
3780;BME280;1905;52.482;9.802;2022-11-15T08:05:25;100552.75;;;9.42;93.37
3780;BME280;1905;52.482;9.802;2022-11-15T08:08:11;100555.31;;;9.43;93.59
3780;BME280;1905;52.482;9.802;2022-11-15T08:11:01;100557.13;;;9.43;93.28
3780;BME280;1905;52.482;9.802;2022-11-15T08:13:48;100558.94;;;9.41;93.50
3780;BME280;1905;52.482;9.802;2022-11-15T08:16:34;100560.69;;;9.42;93.14
3780;BME280;1905;52.482;9.802;2022-11-15T08:19:20;100562.41;;;9.43;93.34
3780;BME280;1905;52.482;9.802;2022-11-15T08:22:06;100560.56;;;9.45;92.17
3780;BME280;1905;52.482;9.802;2022-11-15T08:24:55;100564.72;;;9.50;92.87
3780;BME280;1905;52.482;9.802;2022-11-15T08:27:43;100562.63;;;9.58;94.32
3780;BME280;1905;52.482;9.802;2022-11-15T08:30:30;100563.06;;;9.68;94.42
3780;BME280;1905;52.482;9.802;2022-11-15T08:33:16;100558.34;;;9.76;94.23
3780;BME280;1905;52.482;9.802;2022-11-15T08:36:03;100573.00;;;9.83;94.68
3780;BME280;1905;52.482;9.802;2022-11-15T08:38:49;100561.13;;;9.93;95.10
3780;BME280;1905;52.482;9.802;2022-11-15T08:41:37;100553.09;;;9.96;92.83
3780;BME280;1905;52.482;9.802;2022-11-15T08:44:25;100555.97;;;10.10;94.42
3780;BME280;1905;52.482;9.802;2022-11-15T08:47:11;100555.31;;;10.26;93.83
3780;BME280;1905;52.482;9.802;2022-11-15T08:49:58;100550.66;;;10.32;94.11
3780;BME280;1905;52.482;9.802;2022-11-15T08:52:44;100547.53;;;10.43;93.27
3780;BME280;1905;52.482;9.802;2022-11-15T08:55:30;100548.09;;;10.49;93.48
3780;BME280;1905;52.482;9.802;2022-11-15T08:58:16;100546.94;;;10.55;92.82
3780;BME280;1905;52.482;9.802;2022-11-15T09:01:05;100546.53;;;10.64;92.65
3780;BME280;1905;52.482;9.802;2022-11-15T09:03:51;100548.91;;;10.70;93.10
3780;BME280;1905;52.482;9.802;2022-11-15T09:06:37;100547.94;;;10.71;91.43
3780;BME280;1905;52.482;9.802;2022-11-15T09:09:27;100550.19;;;10.80;92.48
3780;BME280;1905;52.482;9.802;2022-11-15T09:12:14;100557.06;;;10.84;92.14
3780;BME280;1905;52.482;9.802;2022-11-15T09:15:00;100564.81;;;10.87;92.03
3780;BME280;1905;52.482;9.802;2022-11-15T09:17:50;100545.25;;;10.91;91.92
3780;BME280;1905;52.482;9.802;2022-11-15T09:20:36;100551.03;;;10.99;91.71
3780;BME280;1905;52.482;9.802;2022-11-15T09:23:23;100550.78;;;11.04;91.70
3780;BME280;1905;52.482;9.802;2022-11-15T09:26:09;100543.72;;;11.04;91.42
3780;BME280;1905;52.482;9.802;2022-11-15T09:28:56;100547.97;;;11.08;91.10
3780;BME280;1905;52.482;9.802;2022-11-15T09:31:42;100544.06;;;11.15;91.68
3780;BME280;1905;52.482;9.802;2022-11-15T09:34:30;100543.84;;;11.20;91.40
3780;BME280;1905;52.482;9.802;2022-11-15T09:37:16;100545.47;;;11.22;91.08
3780;BME280;1905;52.482;9.802;2022-11-15T09:40:03;100539.84;;;11.30;90.92
3780;BME280;1905;52.482;9.802;2022-11-15T09:43:05;100537.88;;;11.33;90.25
3780;BME280;1905;52.482;9.802;2022-11-15T09:46:04;100540.53;;;11.33;91.04
3780;BME280;1905;52.482;9.802;2022-11-15T09:49:14;100537.75;;;11.36;90.86
3780;BME280;1905;52.482;9.802;2022-11-15T09:52:02;100540.94;;;11.43;90.26
3780;BME280;1905;52.482;9.802;2022-11-15T09:54:33;100542.34;;;11.50;90.61
3780;BME280;1905;52.482;9.802;2022-11-15T09:57:24;100543.97;;;11.53;90.14
3780;BME280;1905;52.482;9.802;2022-11-15T10:00:12;100543.97;;;11.53;90.32
3780;BME280;1905;52.482;9.802;2022-11-15T10:03:09;100535.84;;;11.57;89.82
3780;BME280;1905;52.482;9.802;2022-11-15T10:05:40;100539.97;;;11.63;90.16
3780;BME280;1905;52.482;9.802;2022-11-15T10:08:20;100536.22;;;11.67;89.48
3780;BME280;1905;52.482;9.802;2022-11-15T10:10:56;100532.59;;;11.69;89.76
3780;BME280;1905;52.482;9.802;2022-11-15T10:13:46;100524.34;;;11.75;89.73
3780;BME280;1905;52.482;9.802;2022-11-15T10:16:28;100529.34;;;11.81;89.55
3780;BME280;1905;52.482;9.802;2022-11-15T10:19:06;100535.41;;;11.83;88.71
3780;BME280;1905;52.482;9.802;2022-11-15T10:21:49;100525.38;;;11.90;89.13
3780;BME280;1905;52.482;9.802;2022-11-15T10:24:25;100511.13;;;11.92;89.21
3780;BME280;1905;52.482;9.802;2022-11-15T10:26:54;100510.88;;;11.97;88.91
3780;BME280;1905;52.482;9.802;2022-11-15T10:29:24;100516.72;;;12.04;88.67
3780;BME280;1905;52.482;9.802;2022-11-15T10:31:53;100513.03;;;12.06;89.03
3780;BME280;1905;52.482;9.802;2022-11-15T10:34:22;100519.88;;;12.10;88.97
3780;BME280;1905;52.482;9.802;2022-11-15T10:36:55;100513.66;;;12.11;88.75
3780;BME280;1905;52.482;9.802;2022-11-15T10:39:25;100512.53;;;12.15;88.53
3780;BME280;1905;52.482;9.802;2022-11-15T10:41:54;100512.22;;;12.21;88.72
3780;BME280;1905;52.482;9.802;2022-11-15T10:44:27;100506.94;;;12.21;88.69
3780;BME280;1905;52.482;9.802;2022-11-15T10:47:23;100513.44;;;12.31;88.46
3780;BME280;1905;52.482;9.802;2022-11-15T10:49:59;100508.13;;;12.31;88.30
3780;BME280;1905;52.482;9.802;2022-11-15T10:52:28;100503.69;;;12.32;87.84
3780;BME280;1905;52.482;9.802;2022-11-15T10:55:01;100507.97;;;12.34;87.76
3780;BME280;1905;52.482;9.802;2022-11-15T10:57:32;100493.56;;;12.40;87.75
3780;BME280;1905;52.482;9.802;2022-11-15T11:00:04;100488.19;;;12.41;88.36
3780;BME280;1905;52.482;9.802;2022-11-15T11:02:34;100488.63;;;12.49;87.56
3780;BME280;1905;52.482;9.802;2022-11-15T11:05:04;100479.66;;;12.52;87.67
3780;BME280;1905;52.482;9.802;2022-11-15T11:07:34;100478.47;;;12.58;87.52
3780;BME280;1905;52.482;9.802;2022-11-15T11:10:19;100487.00;;;12.63;87.69
3780;BME280;1905;52.482;9.802;2022-11-15T11:13:14;100477.94;;;12.67;87.19
3780;BME280;1905;52.482;9.802;2022-11-15T11:15:43;100480.25;;;12.73;87.38
3780;BME280;1905;52.482;9.802;2022-11-15T11:18:19;100476.69;;;12.74;87.10
3780;BME280;1905;52.482;9.802;2022-11-15T11:20:57;100481.72;;;12.78;87.60
3780;BME280;1905;52.482;9.802;2022-11-15T11:23:43;100476.75;;;12.88;86.86
3780;BME280;1905;52.482;9.802;2022-11-15T11:26:29;100472.22;;;12.90;86.54
3780;BME280;1905;52.482;9.802;2022-11-15T11:29:13;100463.13;;;12.94;86.47
3780;BME280;1905;52.482;9.802;2022-11-15T11:31:52;100455.97;;;12.96;86.87
3780;BME280;1905;52.482;9.802;2022-11-15T11:34:36;100454.66;;;13.03;85.92
3780;BME280;1905;52.482;9.802;2022-11-15T11:37:12;100451.78;;;13.07;85.62
3780;BME280;1905;52.482;9.802;2022-11-15T11:39:48;100441.84;;;13.11;85.53
3780;BME280;1905;52.482;9.802;2022-11-15T11:42:26;100441.78;;;13.13;85.48
3780;BME280;1905;52.482;9.802;2022-11-15T11:45:03;100441.69;;;13.14;85.55
3780;BME280;1905;52.482;9.802;2022-11-15T11:47:39;100441.50;;;13.17;85.03
3780;BME280;1905;52.482;9.802;2022-11-15T11:50:11;100441.22;;;13.22;85.19
3780;BME280;1905;52.482;9.802;2022-11-15T11:52:48;100437.72;;;13.21;84.74
3780;BME280;1905;52.482;9.802;2022-11-15T11:55:32;100434.72;;;13.27;84.46
3780;BME280;1905;52.482;9.802;2022-11-15T11:58:09;100435.69;;;13.26;84.67
3780;BME280;1905;52.482;9.802;2022-11-15T12:00:41;100431.88;;;13.30;84.32
3780;BME280;1905;52.482;9.802;2022-11-15T12:03:15;100433.44;;;13.34;84.18
3780;BME280;1905;52.482;9.802;2022-11-15T12:05:50;100427.16;;;13.35;84.04
3780;BME280;1905;52.482;9.802;2022-11-15T12:08:25;100424.34;;;13.38;83.89
3780;BME280;1905;52.482;9.802;2022-11-15T12:11:00;100420.75;;;13.39;84.04
3780;BME280;1905;52.482;9.802;2022-11-15T12:13:32;100426.81;;;13.41;83.49
3780;BME280;1905;52.482;9.802;2022-11-15T12:16:07;100421.41;;;13.43;83.89
3780;BME280;1905;52.482;9.802;2022-11-15T12:18:38;100424.66;;;13.48;83.74
3780;BME280;1905;52.482;9.802;2022-11-15T12:21:07;100419.41;;;13.46;84.04
3780;BME280;1905;52.482;9.802;2022-11-15T12:23:43;100425.47;;;13.48;83.76
3780;BME280;1905;52.482;9.802;2022-11-15T12:26:16;100420.00;;;13.51;83.63
3780;BME280;1905;52.482;9.802;2022-11-15T12:28:50;100415.25;;;13.56;83.45
3780;BME280;1905;52.482;9.802;2022-11-15T12:31:36;100405.44;;;13.58;83.71
3780;BME280;1905;52.482;9.802;2022-11-15T12:34:15;100410.56;;;13.61;83.89
3780;BME280;1905;52.482;9.802;2022-11-15T12:36:56;100406.00;;;13.63;83.46
3780;BME280;1905;52.482;9.802;2022-11-15T12:42:40;100399.47;;;13.69;83.04
3780;BME280;1905;52.482;9.802;2022-11-15T12:51:06;100395.41;;;13.78;81.86
3780;BME280;1905;52.482;9.802;2022-11-15T12:53:34;100402.41;;;13.79;82.77
3780;BME280;1905;52.482;9.802;2022-11-15T12:56:18;100393.31;;;13.83;82.99
3780;BME280;1905;52.482;9.802;2022-11-15T12:58:49;100384.97;;;13.89;82.30
3780;BME280;1905;52.482;9.802;2022-11-15T13:01:53;100380.31;;;13.92;82.73
3780;BME280;1905;52.482;9.802;2022-11-15T13:04:26;100377.59;;;13.94;82.40
3780;BME280;1905;52.482;9.802;2022-11-15T13:06:59;100383.47;;;13.99;81.92
3780;BME280;1905;52.482;9.802;2022-11-15T13:09:54;100379.63;;;14.03;82.45
3780;BME280;1905;52.482;9.802;2022-11-15T13:12:54;100375.66;;;14.10;81.81
3780;BME280;1905;52.482;9.802;2022-11-15T13:15:52;100367.41;;;14.14;81.96
3780;BME280;1905;52.482;9.802;2022-11-15T13:18:33;100361.22;;;14.14;81.49
3780;BME280;1905;52.482;9.802;2022-11-15T13:21:03;100357.53;;;14.16;81.52
3780;BME280;1905;52.482;9.802;2022-11-15T13:23:55;100351.09;;;14.20;81.21
3780;BME280;1905;52.482;9.802;2022-11-15T13:26:23;100348.31;;;14.22;80.84
3780;BME280;1905;52.482;9.802;2022-11-15T13:28:51;100337.50;;;14.25;80.86
3780;BME280;1905;52.482;9.802;2022-11-15T13:31:25;100331.13;;;14.27;79.72
3780;BME280;1905;52.482;9.802;2022-11-15T13:33:56;100340.72;;;14.30;79.93
3780;BME280;1905;52.482;9.802;2022-11-15T13:36:26;100341.69;;;14.29;80.22
3780;BME280;1905;52.482;9.802;2022-11-15T13:39:02;100331.63;;;14.34;80.68
3780;BME280;1905;52.482;9.802;2022-11-15T13:41:31;100333.13;;;14.38;80.23
3780;BME280;1905;52.482;9.802;2022-11-15T13:44:00;100333.13;;;14.38;79.54
3780;BME280;1905;52.482;9.802;2022-11-15T13:46:29;100332.38;;;14.36;79.93
3780;BME280;1905;52.482;9.802;2022-11-15T13:49:00;100331.44;;;14.37;79.99
3780;BME280;1905;52.482;9.802;2022-11-15T13:51:34;100326.13;;;14.37;79.98
3780;BME280;1905;52.482;9.802;2022-11-15T13:54:10;100320.63;;;14.40;80.82
3780;BME280;1905;52.482;9.802;2022-11-15T13:56:44;100314.44;;;14.40;80.82
3780;BME280;1905;52.482;9.802;2022-11-15T13:59:17;100312.72;;;14.39;80.51
3780;BME280;1905;52.482;9.802;2022-11-15T14:01:46;100308.28;;;14.39;81.37
3780;BME280;1905;52.482;9.802;2022-11-15T14:04:19;100316.13;;;14.41;80.92
3780;BME280;1905;52.482;9.802;2022-11-15T14:06:49;100310.81;;;14.41;80.53
3780;BME280;1905;52.482;9.802;2022-11-15T14:09:31;100304.69;;;14.40;80.55
3780;BME280;1905;52.482;9.802;2022-11-15T14:12:01;100303.16;;;14.36;79.70
3780;BME280;1905;52.482;9.802;2022-11-15T14:14:29;100304.75;;;14.39;80.79
3780;BME280;1905;52.482;9.802;2022-11-15T14:16:59;100296.13;;;14.35;80.09
3780;BME280;1905;52.482;9.802;2022-11-15T14:19:35;100298.59;;;14.38;80.15
3780;BME280;1905;52.482;9.802;2022-11-15T14:22:18;100302.97;;;14.39;80.30
3780;BME280;1905;52.482;9.802;2022-11-15T14:25:05;100298.91;;;14.34;80.50
3780;BME280;1905;52.482;9.802;2022-11-15T14:27:34;100301.84;;;14.29;80.75
3780;BME280;1905;52.482;9.802;2022-11-15T14:30:02;100289.38;;;14.29;80.97
3780;BME280;1905;52.482;9.802;2022-11-15T14:32:43;100291.22;;;14.29;80.08
3780;BME280;1905;52.482;9.802;2022-11-15T14:35:16;100289.69;;;14.25;80.28
3780;BME280;1905;52.482;9.802;2022-11-15T14:37:45;100296.06;;;14.22;80.76
3780;BME280;1905;52.482;9.802;2022-11-15T14:40:17;100296.91;;;14.23;81.06
3780;BME280;1905;52.482;9.802;2022-11-15T14:42:47;100295.38;;;14.19;80.75
3780;BME280;1905;52.482;9.802;2022-11-15T14:45:17;100287.63;;;14.16;80.89
3780;BME280;1905;52.482;9.802;2022-11-15T14:47:45;100292.72;;;14.19;81.08
3780;BME280;1905;52.482;9.802;2022-11-15T14:50:14;100288.38;;;14.18;80.88
3780;BME280;1905;52.482;9.802;2022-11-15T14:52:43;100292.19;;;14.14;81.02
3780;BME280;1905;52.482;9.802;2022-11-15T14:55:18;100280.81;;;14.12;81.31
3780;BME280;1905;52.482;9.802;2022-11-15T14:57:51;100272.97;;;14.10;81.77
3780;BME280;1905;52.482;9.802;2022-11-15T15:00:19;100276.63;;;14.08;81.73